Time;durP1;ratioP1;P1;durP2;ratioP2;P2;SDS_P1;SDS_P2;PMS_P1;PMS_P2;Temp;Humidity;BMP_temperature;BMP_pressure;BME280_temperature;BME280_humidity;BME280_pressure;Samples;Min_cycle;Max_cycle;Signal;HPM_P1;HPM_P2
2021/01/08 00:00:06;;;;;;;;;;;;;;;5.78;80.12;101504.84;1729074;82;20189;-74
2021/01/08 00:02:41;;;;;;;;;;;;;;;5.84;79.85;101495.77;1716318;82;20206;-75
2021/01/08 00:05:13;;;;;;;;;;;;;;;5.93;79.67;101503.63;1722818;82;20218;-75
2021/01/08 00:07:45;;;;;;;;;;;;;;;6.02;79.42;101509.78;1722557;82;20257;-75
2021/01/08 00:10:17;;;;;;;;;;;;;;;5.98;78.99;101501.09;1729287;82;20560;-74
2021/01/08 00:12:48;;;;;;;;;;;;;;;5.90;78.66;101505.95;1723897;82;20186;-74
2021/01/08 00:15:20;;;;;;;;;;;;;;;5.72;78.56;101507.06;1722405;82;20592;-73
2021/01/08 00:17:51;;;;;;;;;;;;;;;5.64;78.87;101506.75;1730389;82;20313;-74
2021/01/08 00:20:23;;;;;;;;;;;;;;;5.64;79.29;101507.27;1723207;82;20197;-74
2021/01/08 00:22:55;;;;;;;;;;;;;;;5.70;79.35;101503.16;1730350;82;20186;-73
2021/01/08 00:25:27;;;;;;;;;;;;;;;5.76;79.21;101502.84;1724827;82;20258;-74
2021/01/08 00:28:01;;;;;;;;;;;;;;;5.65;78.85;101491.05;1722638;82;20273;-74
2021/01/08 00:30:33;;;;;;;;;;;;;;;5.52;78.91;101483.63;1723555;82;20258;-74
2021/01/08 00:33:04;;;;;;;;;;;;;;;5.47;79.26;101479.27;1720008;82;20261;-74
2021/01/08 00:35:40;;;;;;;;;;;;;;;5.43;79.36;101482.11;1729563;82;20226;-74
2021/01/08 00:38:11;;;;;;;;;;;;;;;5.42;79.70;101490.56;1697666;82;20294;-74
2021/01/08 00:40:42;;;;;;;;;;;;;;;5.36;79.53;101492.77;1725152;82;20197;-74
2021/01/08 00:43:14;;;;;;;;;;;;;;;5.24;79.54;101487.03;1727006;82;20265;-75
2021/01/08 00:45:46;;;;;;;;;;;;;;;5.20;79.83;101491.78;1730487;82;20289;-74
2021/01/08 00:48:17;;;;;;;;;;;;;;;5.15;79.92;101492.92;1729750;82;20254;-75
2021/01/08 00:50:49;;;;;;;;;;;;;;;5.13;80.18;101493.66;1731622;82;20616;-74
2021/01/08 00:53:21;;;;;;;;;;;;;;;5.16;80.52;101493.23;1716541;82;20508;-74
2021/01/08 00:55:53;;;;;;;;;;;;;;;5.29;80.79;101491.91;1731065;82;20206;-74
2021/01/08 00:58:26;;;;;;;;;;;;;;;5.45;80.88;101489.62;1730870;82;20250;-74
2021/01/08 01:00:57;;;;;;;;;;;;;;;5.61;80.67;101492.55;1722173;82;20216;-74
2021/01/08 01:03:30;;;;;;;;;;;;;;;5.70;80.49;101489.91;1725672;82;20190;-74
2021/01/08 01:06:01;;;;;;;;;;;;;;;5.75;80.32;101493.71;1734681;82;20194;-74
2021/01/08 01:08:33;;;;;;;;;;;;;;;5.77;80.13;101501.26;1724390;82;20257;-74
2021/01/08 01:11:05;;;;;;;;;;;;;;;5.80;80.06;101508.30;1719990;82;20269;-75
2021/01/08 01:13:37;;;;;;;;;;;;;;;5.79;79.88;101505.16;1723632;82;20277;-73
2021/01/08 01:16:08;;;;;;;;;;;;;;;5.80;79.97;101513.80;1722576;82;20182;-75
2021/01/08 01:18:40;;;;;;;;;;;;;;;5.82;80.02;101517.19;1737986;82;20301;-74
2021/01/08 01:21:12;;;;;;;;;;;;;;;5.87;79.99;101527.89;1724308;82;20305;-75
2021/01/08 01:23:44;;;;;;;;;;;;;;;5.88;79.81;101526.86;1719437;82;20285;-75
2021/01/08 01:26:15;;;;;;;;;;;;;;;5.82;79.76;101522.70;1729583;82;20254;-73
2021/01/08 01:28:47;;;;;;;;;;;;;;;5.80;79.80;101530.33;1729478;82;20281;-75
2021/01/08 01:31:19;;;;;;;;;;;;;;;5.80;79.87;101528.95;1726002;82;20261;-74
2021/01/08 01:33:50;;;;;;;;;;;;;;;5.81;79.82;101519.08;1729289;82;20254;-74
2021/01/08 01:36:22;;;;;;;;;;;;;;;5.85;79.95;101522.27;1733865;82;20253;-74
2021/01/08 01:38:54;;;;;;;;;;;;;;;5.89;80.08;101512.02;1734111;82;20190;-73
2021/01/08 01:41:26;;;;;;;;;;;;;;;5.97;80.08;101513.69;1716414;82;20186;-74
2021/01/08 01:43:58;;;;;;;;;;;;;;;6.01;79.96;101510.84;1725256;82;20293;-72
2021/01/08 01:46:30;;;;;;;;;;;;;;;6.06;79.96;101507.80;1736349;82;20274;-74
2021/01/08 01:49:02;;;;;;;;;;;;;;;6.04;79.66;101512.65;1719513;82;20265;-73
2021/01/08 01:51:33;;;;;;;;;;;;;;;6.01;79.75;101510.84;1728525;82;20194;-74
2021/01/08 01:54:05;;;;;;;;;;;;;;;6.01;79.77;101513.61;1720057;82;20183;-72
2021/01/08 01:56:37;;;;;;;;;;;;;;;6.01;79.96;101508.95;1718856;82;20217;-73
2021/01/08 01:59:13;;;;;;;;;;;;;;;6.10;80.11;101520.63;1729144;82;20182;-73
2021/01/08 02:01:44;;;;;;;;;;;;;;;6.17;80.13;101523.68;1729547;82;20262;-73
2021/01/08 02:04:16;;;;;;;;;;;;;;;6.25;80.06;101522.11;1728263;82;20206;-74
2021/01/08 02:06:48;;;;;;;;;;;;;;;6.28;79.90;101536.84;1726013;82;20320;-73
2021/01/08 02:09:19;;;;;;;;;;;;;;;6.26;79.82;101539.48;1730121;82;20553;-72
2021/01/08 02:11:54;;;;;;;;;;;;;;;6.29;79.78;101547.34;1732514;82;20592;-74
2021/01/08 02:14:31;;;;;;;;;;;;;;;6.29;79.68;101554.23;1716410;82;20285;-73
2021/01/08 02:17:03;;;;;;;;;;;;;;;6.30;79.71;101548.49;1751456;81;20260;-73
2021/01/08 02:19:51;;;;;;;;;;;;;;;6.37;79.74;101554.02;1718400;82;20588;-74
2021/01/08 02:22:34;;;;;;;;;;;;;;;6.44;79.68;101550.73;1719476;82;20262;-75
2021/01/08 02:25:11;;;;;;;;;;;;;;;6.48;79.51;101554.77;1714215;83;20190;-74
2021/01/08 02:27:45;;;;;;;;;;;;;;;6.45;79.46;101556.55;1720239;82;20289;-75
2021/01/08 02:30:17;;;;;;;;;;;;;;;6.46;79.47;101560.48;1705737;83;20219;-75
2021/01/08 02:32:49;;;;;;;;;;;;;;;6.48;79.42;101558.91;1726433;82;20239;-75
2021/01/08 02:35:21;;;;;;;;;;;;;;;6.45;79.19;101563.45;1722054;83;20226;-74
2021/01/08 02:37:53;;;;;;;;;;;;;;;6.42;79.45;101554.23;1714591;82;20182;-74
2021/01/08 02:40:25;;;;;;;;;;;;;;;6.45;79.43;101551.04;1742799;82;20529;-74
2021/01/08 02:42:59;;;;;;;;;;;;;;;6.36;79.24;101550.41;1714654;82;20183;-74
2021/01/08 02:45:33;;;;;;;;;;;;;;;6.31;79.45;101564.00;1711111;82;20247;-75
2021/01/08 02:48:04;;;;;;;;;;;;;;;6.31;79.54;101569.52;1722063;82;20190;-74
2021/01/08 02:50:36;;;;;;;;;;;;;;;6.20;79.27;101572.03;1752207;81;20228;-72
2021/01/08 02:53:10;;;;;;;;;;;;;;;6.11;79.54;101576.06;1737794;81;20204;-74
2021/01/08 02:56:18;;;;;;;;;;;;;;;6.13;79.81;101573.42;1738716;81;20223;-74
2021/01/08 02:58:49;;;;;;;;;;;;;;;6.18;79.89;101572.78;1739762;81;20279;-72
2021/01/08 03:01:21;;;;;;;;;;;;;;;6.25;79.92;101577.25;1751863;81;20264;-74
2021/01/08 03:03:55;;;;;;;;;;;;;;;6.28;79.80;101581.50;1761896;81;20180;-72
2021/01/08 03:06:28;;;;;;;;;;;;;;;6.29;79.64;101583.20;1750166;81;20296;-73
2021/01/08 03:09:00;;;;;;;;;;;;;;;6.23;79.49;101580.73;1749105;81;20579;-73
2021/01/08 03:11:32;;;;;;;;;;;;;;;6.18;79.52;101579.67;1762877;81;20263;-73
2021/01/08 03:14:03;;;;;;;;;;;;;;;6.14;79.49;101579.25;1742517;81;20519;-74
2021/01/08 03:16:35;;;;;;;;;;;;;;;6.10;79.65;101583.47;1736723;81;20263;-74
2021/01/08 03:19:06;;;;;;;;;;;;;;;6.16;79.84;101577.67;1735595;81;20264;-73
2021/01/08 03:21:39;;;;;;;;;;;;;;;6.21;79.79;101576.48;1755617;81;20208;-72
2021/01/08 03:24:11;;;;;;;;;;;;;;;6.25;79.69;101581.91;1754574;81;20525;-72
2021/01/08 03:26:43;;;;;;;;;;;;;;;6.28;79.54;101574.61;1763063;81;20192;-74
2021/01/08 03:29:15;;;;;;;;;;;;;;;6.26;79.39;101584.98;1753337;81;20252;-75
2021/01/08 03:31:47;;;;;;;;;;;;;;;6.22;79.34;101585.92;1761451;81;20216;-74
2021/01/08 03:34:19;;;;;;;;;;;;;;;6.21;79.41;101583.38;1752310;81;20595;-75
2021/01/08 03:36:51;;;;;;;;;;;;;;;6.25;79.45;101584.14;1762262;81;20227;-75
2021/01/08 03:39:22;;;;;;;;;;;;;;;6.29;79.40;101587.33;1753836;81;20177;-75
2021/01/08 03:41:54;;;;;;;;;;;;;;;6.33;79.26;101580.31;1762106;81;20350;-75
2021/01/08 03:44:26;;;;;;;;;;;;;;;6.33;79.16;101580.31;1745963;81;20252;-74
2021/01/08 03:46:57;;;;;;;;;;;;;;;6.31;79.01;101582.44;1748396;81;20264;-74
2021/01/08 03:49:29;;;;;;;;;;;;;;;6.28;79.01;101587.02;1762236;81;20823;-74
2021/01/08 03:52:01;;;;;;;;;;;;;;;6.24;79.03;101582.42;1761633;81;20219;-75
2021/01/08 03:54:33;;;;;;;;;;;;;;;6.23;79.14;101583.48;1738092;81;20216;-74
2021/01/08 03:57:05;;;;;;;;;;;;;;;6.26;79.19;101593.25;1762345;81;20503;-76
2021/01/08 03:59:37;;;;;;;;;;;;;;;6.27;79.20;101596.31;1754533;81;20292;-74
2021/01/08 04:02:09;;;;;;;;;;;;;;;6.25;79.22;101586.04;1741100;81;20267;-76
2021/01/08 04:04:42;;;;;;;;;;;;;;;6.26;79.27;101585.84;1741279;81;20366;-75
2021/01/08 04:07:13;;;;;;;;;;;;;;;6.24;79.17;101595.38;1740088;81;20503;-74
2021/01/08 04:09:45;;;;;;;;;;;;;;;6.22;79.16;101589.23;1728251;82;20191;-75
2021/01/08 04:12:17;;;;;;;;;;;;;;;6.21;79.21;101588.89;1757707;81;20286;-75
2021/01/08 04:14:48;;;;;;;;;;;;;;;6.26;79.34;101594.62;1735953;82;20345;-74
2021/01/08 04:17:20;;;;;;;;;;;;;;;6.27;79.30;101590.29;1725859;82;20226;-74
2021/01/08 04:19:52;;;;;;;;;;;;;;;6.29;79.30;101606.63;1735905;82;20245;-74
2021/01/08 04:22:23;;;;;;;;;;;;;;;6.26;79.14;101599.63;1736127;82;20528;-74
2021/01/08 04:24:55;;;;;;;;;;;;;;;6.12;79.20;101605.32;1735699;82;20190;-74
2021/01/08 04:27:27;;;;;;;;;;;;;;;6.10;79.56;101597.80;1781719;79;20261;-76
2021/01/08 04:29:58;;;;;;;;;;;;;;;6.04;79.62;101589.82;1778536;79;20189;-75
2021/01/08 04:32:30;;;;;;;;;;;;;;;6.02;79.84;101601.59;1806087;79;20547;-74
2021/01/08 04:35:02;;;;;;;;;;;;;;;6.06;79.99;101600.64;1772797;79;20210;-74
2021/01/08 04:37:33;;;;;;;;;;;;;;;6.14;80.08;101601.81;1787850;79;20300;-75
2021/01/08 04:40:06;;;;;;;;;;;;;;;6.13;79.86;101607.02;1801862;79;20281;-75
2021/01/08 04:42:38;;;;;;;;;;;;;;;6.07;80.05;101611.98;1792365;79;20261;-75
2021/01/08 04:45:11;;;;;;;;;;;;;;;6.00;79.99;101611.98;1785294;79;20293;-75
2021/01/08 04:47:44;;;;;;;;;;;;;;;5.91;80.10;101606.84;1804268;79;20277;-75
2021/01/08 04:50:15;;;;;;;;;;;;;;;5.86;80.36;101606.64;1797958;79;20261;-74
2021/01/08 04:52:47;;;;;;;;;;;;;;;5.83;80.63;101609.28;1803564;79;20598;-75
2021/01/08 04:55:19;;;;;;;;;;;;;;;5.81;80.66;101610.00;1762077;79;20266;-75
2021/01/08 04:57:51;;;;;;;;;;;;;;;5.77;80.78;101614.72;1772101;79;20178;-75
2021/01/08 05:00:22;;;;;;;;;;;;;;;5.73;80.94;101620.34;1787658;79;20177;-76
2021/01/08 05:02:54;;;;;;;;;;;;;;;5.72;81.15;101620.00;1807713;79;20213;-74
2021/01/08 05:05:26;;;;;;;;;;;;;;;5.77;81.49;101618.86;1760030;79;20261;-74
2021/01/08 05:07:58;;;;;;;;;;;;;;;5.88;81.54;101607.27;1782052;79;20622;-74
2021/01/08 05:10:29;;;;;;;;;;;;;;;5.94;81.52;101611.44;1793960;79;20249;-75
2021/01/08 05:13:01;;;;;;;;;;;;;;;6.06;81.46;101611.67;1787356;79;20194;-76
2021/01/08 05:15:32;;;;;;;;;;;;;;;6.10;81.14;101619.85;1792779;79;20258;-75
2021/01/08 05:18:04;;;;;;;;;;;;;;;6.09;81.10;101611.23;1799691;79;20232;-75
2021/01/08 05:20:37;;;;;;;;;;;;;;;6.11;81.06;101602.25;1789977;79;20369;-75
2021/01/08 05:23:10;;;;;;;;;;;;;;;6.13;80.94;101598.75;1756042;79;20182;-75
2021/01/08 05:25:47;;;;;;;;;;;;;;;6.16;80.90;101612.95;1788079;79;20178;-75
2021/01/08 05:28:18;;;;;;;;;;;;;;;6.23;80.86;101607.47;1800216;79;20957;-75
2021/01/08 05:30:50;;;;;;;;;;;;;;;6.31;80.72;101600.36;1786653;79;20181;-75
2021/01/08 05:33:22;;;;;;;;;;;;;;;6.34;80.41;101599.41;1781629;79;20181;-74
2021/01/08 05:35:53;;;;;;;;;;;;;;;6.36;80.29;101597.28;1768457;79;20258;-75
2021/01/08 05:38:25;;;;;;;;;;;;;;;6.36;80.18;101601.41;1786859;79;20535;-75
2021/01/08 05:41:03;;;;;;;;;;;;;;;6.34;80.01;101598.03;1799560;79;20257;-75
2021/01/08 05:43:35;;;;;;;;;;;;;;;6.37;79.96;101592.11;1776456;79;20536;-74
2021/01/08 05:46:18;;;;;;;;;;;;;;;6.44;80.07;101595.72;1788307;79;20540;-73
2021/01/08 05:48:52;;;;;;;;;;;;;;;6.51;79.97;101590.19;1783590;79;20193;-74
2021/01/08 05:51:25;;;;;;;;;;;;;;;6.59;79.84;101585.30;1786319;79;20260;-74
2021/01/08 05:53:59;;;;;;;;;;;;;;;6.65;79.72;101590.52;1779574;79;20186;-75
2021/01/08 05:56:35;;;;;;;;;;;;;;;6.69;79.50;101602.29;1790713;79;20234;-75
2021/01/08 05:59:08;;;;;;;;;;;;;;;6.66;79.23;101612.91;1777200;79;20196;-75
2021/01/08 06:01:40;;;;;;;;;;;;;;;6.61;79.17;101611.31;1781092;79;20181;-76
2021/01/08 06:04:12;;;;;;;;;;;;;;;6.64;79.41;101614.48;1779820;79;20189;-76
2021/01/08 06:06:44;;;;;;;;;;;;;;;6.71;79.05;101633.81;1804425;79;20297;-77
2021/01/08 06:09:16;;;;;;;;;;;;;;;6.70;78.88;101632.95;1791736;79;20832;-75
2021/01/08 06:11:49;;;;;;;;;;;;;;;6.70;78.86;101626.57;1805807;79;20584;-76
2021/01/08 06:14:23;;;;;;;;;;;;;;;6.67;78.88;101622.36;1783329;79;20576;-76
2021/01/08 06:16:55;;;;;;;;;;;;;;;6.66;78.86;101609.59;1789765;79;20293;-77
2021/01/08 06:19:27;;;;;;;;;;;;;;;6.68;78.66;101613.53;1795248;79;20504;-75
2021/01/08 06:21:59;;;;;;;;;;;;;;;6.69;78.26;101605.05;1806521;79;20596;-76
2021/01/08 06:24:31;;;;;;;;;;;;;;;6.73;78.03;101594.44;1802226;79;20603;-77
2021/01/08 06:27:02;;;;;;;;;;;;;;;6.72;77.67;101594.12;1807397;79;20189;-76
2021/01/08 06:29:34;;;;;;;;;;;;;;;6.69;77.03;101589.02;1775921;79;20218;-74
2021/01/08 06:32:13;;;;;;;;;;;;;;;6.67;77.04;101596.67;1767644;79;20213;-76
2021/01/08 06:34:45;;;;;;;;;;;;;;;6.66;76.77;101586.70;1783032;79;20225;-75
2021/01/08 06:37:21;;;;;;;;;;;;;;;6.63;76.39;101587.11;1796641;79;20265;-77
2021/01/08 06:39:56;;;;;;;;;;;;;;;6.56;76.11;101589.89;1788415;79;20221;-76
2021/01/08 06:42:32;;;;;;;;;;;;;;;6.46;76.09;101595.48;1778769;79;20204;-77
2021/01/08 06:45:04;;;;;;;;;;;;;;;6.37;76.24;101594.87;1787411;79;20213;-77
2021/01/08 06:47:36;;;;;;;;;;;;;;;6.33;76.20;101609.27;1805045;79;20287;-76
2021/01/08 06:50:08;;;;;;;;;;;;;;;6.30;76.27;101617.97;1801009;79;20555;-77
2021/01/08 06:52:40;;;;;;;;;;;;;;;6.25;76.39;101618.61;1754672;80;20202;-80
2021/01/08 06:55:17;;;;;;;;;;;;;;;6.22;76.53;101617.63;1751601;80;20191;-76
2021/01/08 06:57:55;;;;;;;;;;;;;;;6.23;76.72;101610.22;1770622;79;20216;-77
2021/01/08 07:00:29;;;;;;;;;;;;;;;6.26;76.96;101616.69;1781062;79;20193;-77
2021/01/08 07:03:04;;;;;;;;;;;;;;;6.24;76.96;101605.02;1779280;79;20217;-76
2021/01/08 07:05:36;;;;;;;;;;;;;;;6.18;77.22;101601.73;1809461;79;20218;-79
2021/01/08 07:08:08;;;;;;;;;;;;;;;6.17;77.46;101600.03;1775838;79;20206;-78
2021/01/08 07:10:40;;;;;;;;;;;;;;;6.18;77.53;101612.20;1779467;79;20255;-78
2021/01/08 07:13:12;;;;;;;;;;;;;;;6.18;77.67;101609.45;1793339;79;20253;-76
2021/01/08 07:15:43;;;;;;;;;;;;;;;6.27;77.87;101617.00;1798962;79;20587;-74
2021/01/08 07:18:15;;;;;;;;;;;;;;;6.30;78.01;101616.05;1772347;79;20253;-77
2021/01/08 07:20:58;;;;;;;;;;;;;;;6.33;78.04;101625.80;1807465;79;20288;-74
2021/01/08 07:23:31;;;;;;;;;;;;;;;6.34;78.10;101622.02;1781013;79;20568;-76
2021/01/08 07:26:03;;;;;;;;;;;;;;;6.42;78.07;101614.91;1750837;79;20576;-75
2021/01/08 07:28:34;;;;;;;;;;;;;;;6.45;77.90;101612.58;1760597;79;20257;-76
2021/01/08 07:31:09;;;;;;;;;;;;;;;6.45;77.88;101613.09;1801029;79;20317;-76
2021/01/08 07:33:48;;;;;;;;;;;;;;;6.54;77.83;101622.88;1782130;79;20194;-75
2021/01/08 07:36:25;;;;;;;;;;;;;;;6.67;77.91;101622.36;1796137;79;20257;-76
2021/01/08 07:38:57;;;;;;;;;;;;;;;6.77;77.81;101627.45;1780897;79;20268;-76
2021/01/08 07:41:39;;;;;;;;;;;;;;;6.86;77.66;101635.30;1795649;79;20584;-74
2021/01/08 07:44:30;;;;;;;;;;;;;;;6.91;77.35;101634.65;1778590;79;20272;-75
2021/01/08 07:47:21;;;;;;;;;;;;;;;6.98;77.01;101632.20;1788362;79;20628;-75
2021/01/08 07:50:09;;;;;;;;;;;;;;;6.99;76.34;101631.66;1791587;79;20253;-77
2021/01/08 07:52:43;;;;;;;;;;;;;;;6.94;75.80;101630.06;1804228;79;20591;-77
2021/01/08 07:55:33;;;;;;;;;;;;;;;6.93;75.49;101629.75;1790838;79;20258;-75
2021/01/08 07:58:05;;;;;;;;;;;;;;;6.93;75.59;101635.27;1792984;79;20177;-76
2021/01/08 08:00:36;;;;;;;;;;;;;;;6.94;75.73;101635.07;1788035;79;20269;-77
2021/01/08 08:03:10;;;;;;;;;;;;;;;6.95;75.72;101639.52;1792162;79;20279;-75
2021/01/08 08:05:43;;;;;;;;;;;;;;;6.92;75.83;101632.20;1764430;80;20187;-75
2021/01/08 08:08:15;;;;;;;;;;;;;;;6.93;75.83;101629.23;1770665;79;20221;-76
2021/01/08 08:10:46;;;;;;;;;;;;;;;6.95;75.76;101638.14;1795253;79;20257;-72
2021/01/08 08:13:20;;;;;;;;;;;;;;;6.96;75.91;101634.86;1805841;79;20253;-75
2021/01/08 08:15:51;;;;;;;;;;;;;;;6.94;75.97;101635.59;1766823;79;20185;-76
2021/01/08 08:18:23;;;;;;;;;;;;;;;6.88;75.84;101633.68;1805387;79;20702;-77
2021/01/08 08:21:09;;;;;;;;;;;;;;;6.81;75.99;101628.18;1781648;79;20508;-77
2021/01/08 08:23:41;;;;;;;;;;;;;;;6.78;76.13;101625.00;1792754;79;20276;-77
2021/01/08 08:26:12;;;;;;;;;;;;;;;6.73;76.36;101637.20;1799287;79;20249;-77
2021/01/08 08:28:45;;;;;;;;;;;;;;;6.72;76.56;101636.89;1807784;79;20186;-77
2021/01/08 08:31:16;;;;;;;;;;;;;;;6.73;76.76;101626.16;1790746;79;20606;-78
2021/01/08 08:33:49;;;;;;;;;;;;;;;6.67;76.88;101618.73;1780251;79;20220;-78
2021/01/08 08:36:25;;;;;;;;;;;;;;;6.57;77.49;101622.44;1784818;79;20183;-78
2021/01/08 08:39:10;;;;;;;;;;;;;;;6.50;77.90;101621.08;1797031;78;20226;-79
2021/01/08 08:41:44;;;;;;;;;;;;;;;6.57;78.28;101618.30;1793573;79;20257;-78
2021/01/08 08:44:18;;;;;;;;;;;;;;;6.66;78.48;101615.67;1802907;79;20544;-76
2021/01/08 08:47:03;;;;;;;;;;;;;;;6.75;78.46;101608.85;1776005;79;21678;-79
2021/01/08 08:49:36;;;;;;;;;;;;;;;6.81;78.37;101599.72;1806123;79;20182;-78
2021/01/08 08:52:08;;;;;;;;;;;;;;;6.83;78.18;101601.76;1805802;79;20287;-80
2021/01/08 08:54:42;;;;;;;;;;;;;;;6.83;78.24;101609.48;1793931;79;20256;-80
2021/01/08 08:57:14;;;;;;;;;;;;;;;6.85;78.39;101612.05;1793787;79;20245;-79
2021/01/08 08:59:46;;;;;;;;;;;;;;;6.92;78.41;101608.74;1781622;78;20268;-83
2021/01/08 09:02:29;;;;;;;;;;;;;;;7.02;78.42;101614.69;1791914;79;20307;-85
2021/01/08 09:05:03;;;;;;;;;;;;;;;7.10;78.35;101601.50;1784441;80;20186;-80
2021/01/08 09:07:46;;;;;;;;;;;;;;;7.18;78.12;101596.57;1780951;80;20220;-80
2021/01/08 09:10:33;;;;;;;;;;;;;;;7.18;77.73;101600.71;1767695;80;20222;-80
2021/01/08 09:13:15;;;;;;;;;;;;;;;7.15;77.68;101600.30;1772769;79;20182;-80
2021/01/08 09:15:58;;;;;;;;;;;;;;;7.10;77.72;101596.50;1775764;79;20599;-81
2021/01/08 09:19:04;;;;;;;;;;;;;;;7.07;77.71;101596.91;1773662;79;20184;-84
2021/01/08 09:21:40;;;;;;;;;;;;;;;7.05;77.87;101604.05;1770956;79;20296;-82
2021/01/08 09:24:14;;;;;;;;;;;;;;;7.07;78.15;101599.16;1768388;80;20619;-81
2021/01/08 09:26:46;;;;;;;;;;;;;;;7.10;78.36;101592.36;1775716;79;20186;-82
2021/01/08 09:29:32;;;;;;;;;;;;;;;7.17;78.53;101590.42;1778808;79;20523;-81
2021/01/08 09:32:06;;;;;;;;;;;;;;;7.24;78.47;101584.66;1775187;79;20542;-79
2021/01/08 09:34:39;;;;;;;;;;;;;;;7.33;78.23;101586.66;1778914;79;20745;-81
2021/01/08 09:37:15;;;;;;;;;;;;;;;7.35;77.73;101589.52;1767931;79;20295;-79
2021/01/08 09:39:47;;;;;;;;;;;;;;;7.35;76.79;101574.33;1772139;79;20178;-80
2021/01/08 09:42:19;;;;;;;;;;;;;;;7.33;76.96;101573.39;1758883;81;20244;-79
2021/01/08 09:44:50;;;;;;;;;;;;;;;7.33;77.13;101572.33;1768229;79;20298;-81
2021/01/08 09:47:22;;;;;;;;;;;;;;;7.34;77.14;101564.34;1771473;79;20343;-81
2021/01/08 09:49:55;;;;;;;;;;;;;;;7.38;76.92;101552.88;1764367;79;20277;-80
2021/01/08 09:52:30;;;;;;;;;;;;;;;7.36;76.79;101550.33;1769218;80;20595;-79
2021/01/08 09:55:05;;;;;;;;;;;;;;;7.33;77.01;101554.06;1775183;80;20185;-80
2021/01/08 09:57:37;;;;;;;;;;;;;;;7.33;77.17;101565.94;1787192;79;20253;-82
2021/01/08 10:00:11;;;;;;;;;;;;;;;7.32;76.79;101566.18;1768779;80;20253;-80
2021/01/08 10:02:47;;;;;;;;;;;;;;;7.29;76.71;101570.22;1771155;80;20181;-77
2021/01/08 10:05:25;;;;;;;;;;;;;;;7.27;76.49;101563.22;1772334;80;20214;-79
2021/01/08 10:07:59;;;;;;;;;;;;;;;7.22;76.63;101557.49;1755200;80;20524;-76
2021/01/08 10:10:35;;;;;;;;;;;;;;;7.16;76.70;101552.84;1740769;80;20257;-78
2021/01/08 10:13:09;;;;;;;;;;;;;;;7.12;76.99;101547.42;1777836;80;20597;-76
2021/01/08 10:15:43;;;;;;;;;;;;;;;7.09;76.97;101547.88;1774277;80;20194;-80
2021/01/08 10:18:17;;;;;;;;;;;;;;;7.00;77.26;101536.73;1777311;80;20600;-77
2021/01/08 10:20:50;;;;;;;;;;;;;;;6.95;77.48;101533.80;1788272;78;20248;-77
2021/01/08 10:23:23;;;;;;;;;;;;;;;6.90;77.44;101528.08;1800067;78;20253;-77
2021/01/08 10:26:18;;;;;;;;;;;;;;;6.86;76.93;101516.62;1800069;78;20225;-76
2021/01/08 10:28:51;;;;;;;;;;;;;;;6.81;76.96;101510.03;1791736;79;20289;-77
2021/01/08 10:31:24;;;;;;;;;;;;;;;6.81;76.54;101507.28;1789535;79;20264;-78
2021/01/08 10:33:59;;;;;;;;;;;;;;;6.79;75.37;101513.55;1799359;79;20234;-78
2021/01/08 10:36:32;;;;;;;;;;;;;;;6.75;75.14;101508.14;1793482;79;20189;-78
2021/01/08 10:39:04;;;;;;;;;;;;;;;6.72;75.05;101496.17;1787326;79;20308;-78
2021/01/08 10:41:36;;;;;;;;;;;;;;;6.70;74.37;101493.63;1790877;79;20319;-78
2021/01/08 10:44:08;;;;;;;;;;;;;;;6.67;74.27;101492.69;1792576;79;20600;-79
2021/01/08 10:46:40;;;;;;;;;;;;;;;6.64;74.13;101493.10;1789917;79;20208;-78
2021/01/08 10:49:12;;;;;;;;;;;;;;;6.61;74.22;101488.03;1792539;79;20296;-78
2021/01/08 10:51:45;;;;;;;;;;;;;;;6.62;74.47;101475.06;1786979;79;20256;-77
2021/01/08 10:54:18;;;;;;;;;;;;;;;6.61;74.71;101469.23;1789714;79;20250;-78
2021/01/08 10:56:52;;;;;;;;;;;;;;;6.56;74.91;101464.89;1796014;79;20245;-78
2021/01/08 10:59:25;;;;;;;;;;;;;;;6.56;74.95;101464.89;1777936;79;20329;-78
2021/01/08 11:01:58;;;;;;;;;;;;;;;6.56;75.29;101470.41;1756113;79;20276;-78
2021/01/08 11:04:31;;;;;;;;;;;;;;;6.57;75.19;101461.93;1752412;80;20236;-76
2021/01/08 11:07:07;;;;;;;;;;;;;;;6.56;75.09;101458.86;1771819;79;20183;-78
2021/01/08 11:09:40;;;;;;;;;;;;;;;6.55;75.15;101457.17;1770022;80;20330;-79
2021/01/08 11:12:14;;;;;;;;;;;;;;;6.53;75.32;101454.30;1773279;79;20495;-77
2021/01/08 11:14:45;;;;;;;;;;;;;;;6.51;75.61;101461.92;1777090;80;20207;-76
2021/01/08 11:17:19;;;;;;;;;;;;;;;6.51;76.01;101457.79;1772558;80;20294;-76
2021/01/08 11:19:52;;;;;;;;;;;;;;;6.51;76.49;101460.55;1766567;80;20268;-79
2021/01/08 11:22:26;;;;;;;;;;;;;;;6.52;76.43;101452.59;1776222;80;20196;-78
2021/01/08 11:24:58;;;;;;;;;;;;;;;6.54;76.80;101463.72;1751380;80;20184;-78
2021/01/08 11:27:34;;;;;;;;;;;;;;;6.54;76.89;101465.65;1755009;80;20219;-81
2021/01/08 11:30:09;;;;;;;;;;;;;;;6.54;77.10;101469.23;1774855;79;20190;-77
2021/01/08 11:32:40;;;;;;;;;;;;;;;6.56;77.19;101460.76;1778790;80;20217;-75
2021/01/08 11:35:14;;;;;;;;;;;;;;;6.60;77.49;101460.66;1760715;79;20342;-81
2021/01/08 11:37:48;;;;;;;;;;;;;;;6.59;77.56;101452.89;1771504;80;20250;-79
2021/01/08 11:40:19;;;;;;;;;;;;;;;6.67;77.75;101447.69;1774006;80;20265;-75
2021/01/08 11:42:51;;;;;;;;;;;;;;;6.71;77.71;101447.58;1777609;80;20249;-76
2021/01/08 11:45:23;;;;;;;;;;;;;;;6.70;77.54;101438.95;1766694;80;20253;-76
2021/01/08 11:47:55;;;;;;;;;;;;;;;6.70;77.56;101432.92;1762868;80;20540;-74
2021/01/08 11:50:27;;;;;;;;;;;;;;;6.74;77.82;101426.44;1776368;79;20191;-77
2021/01/08 11:52:58;;;;;;;;;;;;;;;6.77;77.88;101420.50;1774400;79;20191;-77
2021/01/08 11:55:32;;;;;;;;;;;;;;;6.83;77.61;101422.38;1776012;79;20211;-76
2021/01/08 11:58:04;;;;;;;;;;;;;;;6.84;77.37;101417.17;1769806;79;20274;-77
2021/01/08 12:00:36;;;;;;;;;;;;;;;6.85;77.30;101423.00;1779691;79;20562;-76
2021/01/08 12:03:08;;;;;;;;;;;;;;;6.89;77.29;101425.66;1769420;79;20259;-76
2021/01/08 12:05:42;;;;;;;;;;;;;;;6.92;77.19;101421.05;1758718;80;20555;-76
2021/01/08 12:08:13;;;;;;;;;;;;;;;6.91;76.91;101419.37;1763714;80;20342;-77
2021/01/08 12:10:45;;;;;;;;;;;;;;;6.91;76.76;101417.98;1759437;80;20324;-76
2021/01/08 12:13:18;;;;;;;;;;;;;;;6.88;76.79;101417.89;1778347;79;20184;-77
2021/01/08 12:15:50;;;;;;;;;;;;;;;6.86;76.89;101420.55;1768968;79;20307;-77
2021/01/08 12:18:23;;;;;;;;;;;;;;;6.86;77.07;101417.79;1764291;80;20219;-76
2021/01/08 12:20:54;;;;;;;;;;;;;;;6.88;76.85;101404.09;1763010;79;20347;-76
2021/01/08 12:23:27;;;;;;;;;;;;;;;6.93;76.80;101413.09;1782591;79;20190;-80
2021/01/08 12:25:59;;;;;;;;;;;;;;;6.93;76.61;101404.80;1760503;80;20217;-76
2021/01/08 12:28:31;;;;;;;;;;;;;;;6.94;76.47;101409.25;1770747;80;20240;-76
2021/01/08 12:31:03;;;;;;;;;;;;;;;6.94;76.64;101415.63;1774205;80;20253;-76
2021/01/08 12:33:36;;;;;;;;;;;;;;;6.94;76.64;101412.87;1774184;80;20205;-77
2021/01/08 12:36:09;;;;;;;;;;;;;;;6.89;76.79;101404.95;1773739;80;20208;-80
2021/01/08 12:38:41;;;;;;;;;;;;;;;6.85;76.96;101401.75;1769767;80;20328;-75
2021/01/08 12:41:14;;;;;;;;;;;;;;;6.84;76.73;101392.34;1770546;80;20270;-79
2021/01/08 12:43:45;;;;;;;;;;;;;;;6.85;76.53;101389.88;1779018;80;20245;-77
2021/01/08 12:46:21;;;;;;;;;;;;;;;6.80;76.29;101386.41;1777282;80;20186;-76
2021/01/08 12:48:53;;;;;;;;;;;;;;;6.77;76.35;101385.45;1771702;80;20604;-78
2021/01/08 12:51:26;;;;;;;;;;;;;;;6.72;76.14;101375.59;1776996;80;20186;-77
2021/01/08 12:53:58;;;;;;;;;;;;;;;6.66;75.78;101372.34;1779955;80;20186;-75
2021/01/08 12:56:37;;;;;;;;;;;;;;;6.63;75.46;101365.89;1780572;79;20177;-76
2021/01/08 12:59:08;;;;;;;;;;;;;;;6.60;75.47;101366.86;1781853;79;20287;-76
2021/01/08 13:01:41;;;;;;;;;;;;;;;6.55;75.08;101385.45;1766805;79;20181;-76
2021/01/08 13:04:12;;;;;;;;;;;;;;;6.54;75.17;101391.18;1765264;80;20177;-75
2021/01/08 13:06:53;;;;;;;;;;;;;;;6.53;74.80;101388.11;1748495;80;20214;-76
2021/01/08 13:09:33;;;;;;;;;;;;;;;6.53;74.97;101393.63;1730914;79;20187;-77
2021/01/08 13:12:29;;;;;;;;;;;;;;;6.50;74.29;101392.14;1770916;80;20231;-78
2021/01/08 13:15:13;;;;;;;;;;;;;;;6.45;73.91;101384.19;1748613;80;20191;-76
2021/01/08 13:17:52;;;;;;;;;;;;;;;6.42;73.35;101373.61;1759025;80;20522;-74
2021/01/08 13:20:27;;;;;;;;;;;;;;;6.37;73.31;101380.30;1767809;80;20183;-78